Time;durP1;ratioP1;P1;durP2;ratioP2;P2;SDS_P1;SDS_P2;PMS_P1;PMS_P2;Temp;Humidity;BMP_temperature;BMP_pressure;BME280_temperature;BME280_humidity;BME280_pressure;Samples;Min_cycle;Max_cycle;Signal;HPM_P1;HPM_P2
2023/09/29 00:01:19;;;;;;;1.55;1.45;;;;;;;19.67;47.54;100534.03;5052006;28;20230;-75
2023/09/29 00:03:46;;;;;;;3.72;1.52;;;;;;;19.80;48.64;100563.66;5052229;28;20214;-75
2023/09/29 00:06:13;;;;;;;0.85;0.85;;;;;;;19.79;48.12;100565.44;5052198;28;20196;-77
2023/09/29 00:08:41;;;;;;;2.55;1.50;;;;;;;19.89;48.08;100560.91;5072346;28;20210;-75
2023/09/29 00:11:08;;;;;;;5.18;1.42;;;;;;;19.97;47.95;100566.91;5070619;28;20252;-76
2023/09/29 00:13:36;;;;;;;1.80;1.05;;;;;;;19.99;47.77;100565.13;5071748;28;20321;-76
2023/09/29 00:16:03;;;;;;;2.85;1.70;;;;;;;19.86;48.17;100571.47;5072143;28;20198;-76
2023/09/29 00:18:31;;;;;;;2.70;1.35;;;;;;;19.86;48.65;100568.84;5071495;28;20238;-76
2023/09/29 00:20:58;;;;;;;1.20;0.90;;;;;;;19.78;48.66;100571.59;5072008;28;20199;-76
2023/09/29 00:23:25;;;;;;;3.15;1.50;;;;;;;19.66;49.44;100555.97;5072260;28;20203;-77
2023/09/29 00:25:52;;;;;;;2.38;1.30;;;;;;;19.69;49.80;100578.75;5071945;28;20203;-77
2023/09/29 00:28:18;;;;;;;2.15;1.02;;;;;;;19.54;50.08;100553.53;5071497;28;20198;-77
2023/09/29 00:30:46;;;;;;;2.13;1.58;;;;;;;19.76;49.88;100575.97;5071519;28;20209;-75
2023/09/29 00:33:13;;;;;;;2.05;1.40;;;;;;;19.65;50.22;100577.06;5062668;28;20195;-76
2023/09/29 00:35:40;;;;;;;4.18;1.52;;;;;;;19.61;50.37;100578.84;5071913;28;20214;-76
2023/09/29 00:38:07;;;;;;;2.15;1.15;;;;;;;19.57;50.73;100579.78;5071678;28;20219;-77
2023/09/29 00:40:35;;;;;;;1.25;1.10;;;;;;;19.51;51.28;100577.22;5053323;28;20568;-77
2023/09/29 00:43:04;;;;;;;5.50;1.25;;;;;;;19.52;51.60;100567.56;5071681;28;20199;-77
2023/09/29 00:45:31;;;;;;;2.22;1.10;;;;;;;19.35;51.51;100580.03;5072045;28;20230;-77
2023/09/29 00:48:07;;;;;;;2.53;1.50;;;;;;;19.44;51.36;100572.09;5072007;28;20203;-77
2023/09/29 00:50:34;;;;;;;1.55;1.10;;;;;;;19.42;51.45;100572.09;5071681;28;20662;-76
2023/09/29 00:53:06;;;;;;;1.20;1.08;;;;;;;19.45;50.81;100576.44;5071589;28;20232;-78
2023/09/29 00:55:36;;;;;;;1.13;1.02;;;;;;;19.38;50.97;100553.69;5071014;28;21267;-77
2023/09/29 00:58:05;;;;;;;2.75;1.02;;;;;;;19.57;50.60;100578.91;5071403;28;20305;-77
2023/09/29 01:00:35;;;;;;;0.90;0.88;;;;;;;19.35;51.08;100559.00;5069768;28;20282;-78
2023/09/29 01:03:06;;;;;;;0.90;0.90;;;;;;;19.45;51.32;100573.81;5032845;28;20195;-77
2023/09/29 01:05:37;;;;;;;2.55;1.13;;;;;;;19.42;51.31;100571.22;5051715;28;20679;-77
2023/09/29 01:08:08;;;;;;;0.88;0.88;;;;;;;19.31;51.41;100569.56;5051686;28;20680;-77
2023/09/29 01:10:35;;;;;;;0.85;0.80;;;;;;;19.33;51.56;100581.84;5028488;28;20198;-76
2023/09/29 01:13:02;;;;;;;1.15;1.05;;;;;;;19.18;51.11;100538.19;5071272;28;20215;-78
2023/09/29 01:15:31;;;;;;;1.85;1.20;;;;;;;19.10;51.98;100540.91;5071430;28;20195;-77
2023/09/29 01:17:58;;;;;;;0.65;0.65;;;;;;;19.13;51.95;100535.63;5071495;28;20717;-77
2023/09/29 01:20:30;;;;;;;1.48;0.93;;;;;;;19.35;52.00;100553.75;5071127;28;20250;-77
2023/09/29 01:23:01;;;;;;;1.58;1.20;;;;;;;19.45;52.06;100564.16;5071553;28;20242;-77
2023/09/29 01:25:30;;;;;;;1.45;1.08;;;;;;;19.33;52.45;100572.19;5071220;28;20206;-77
2023/09/29 01:27:57;;;;;;;4.80;1.88;;;;;;;19.17;52.32;100552.22;5071183;28;20575;-77
2023/09/29 01:30:25;;;;;;;2.08;1.25;;;;;;;19.03;52.47;100541.88;5071120;28;20203;-77
2023/09/29 01:32:56;;;;;;;0.70;0.70;;;;;;;19.15;53.17;100573.28;5071501;28;20671;-76
2023/09/29 01:35:23;;;;;;;0.98;0.98;;;;;;;19.12;53.32;100562.78;5071175;28;20198;-76
2023/09/29 01:37:53;;;;;;;1.38;1.05;;;;;;;19.21;52.68;100573.19;5071384;28;20284;-77
2023/09/29 01:40:21;;;;;;;2.97;1.98;;;;;;;19.21;52.52;100575.84;5036348;28;20195;-76
2023/09/29 01:42:50;;;;;;;1.17;0.95;;;;;;;19.15;52.90;100557.53;5070821;28;20203;-76
2023/09/29 01:45:18;;;;;;;1.25;1.15;;;;;;;19.03;52.59;100547.13;5036608;28;20655;-77
2023/09/29 01:47:46;;;;;;;1.17;0.80;;;;;;;19.16;52.52;100564.50;5071196;28;20199;-77
2023/09/29 01:50:16;;;;;;;3.30;1.17;;;;;;;19.03;53.06;100551.53;5035634;28;20202;-77
2023/09/29 01:52:43;;;;;;;0.93;0.88;;;;;;;19.19;52.84;100589.91;5070787;28;20203;-77
2023/09/29 01:55:16;;;;;;;1.80;1.70;;;;;;;19.17;52.98;100582.00;5071317;28;20191;-77
2023/09/29 01:57:43;;;;;;;1.85;1.75;;;;;;;19.16;53.03;100585.53;5070956;28;20199;-77
2023/09/29 02:00:15;;;;;;;2.33;1.25;;;;;;;19.31;52.81;100579.22;5071192;28;20308;-77
2023/09/29 02:02:44;;;;;;;0.85;0.80;;;;;;;19.27;53.06;100577.50;5036011;28;20191;-77
2023/09/29 02:05:12;;;;;;;2.20;0.93;;;;;;;19.13;53.53;100580.31;5071226;28;20210;-77
2023/09/29 02:07:39;;;;;;;1.67;1.02;;;;;;;19.07;53.02;100579.50;5074065;28;20191;-77
2023/09/29 02:10:08;;;;;;;1.30;1.23;;;;;;;19.05;54.40;100579.50;5074378;28;20659;-77
2023/09/29 02:12:39;;;;;;;1.95;1.05;;;;;;;19.12;53.05;100585.59;5074711;28;20195;-77
2023/09/29 02:15:08;;;;;;;1.42;0.90;;;;;;;19.21;53.65;100582.84;5074687;28;20206;-77
2023/09/29 02:17:36;;;;;;;1.77;1.35;;;;;;;19.18;53.80;100578.50;5074097;28;20557;-77
2023/09/29 02:20:15;;;;;;;1.40;1.30;;;;;;;19.11;53.76;100591.75;5074307;28;20249;-77
2023/09/29 02:22:45;;;;;;;3.55;0.98;;;;;;;19.12;54.46;100594.31;5057610;28;20203;-77
2023/09/29 02:25:15;;;;;;;0.88;0.73;;;;;;;19.06;53.66;100591.78;5074363;28;20210;-77
2023/09/29 02:27:42;;;;;;;2.55;1.33;;;;;;;19.16;53.86;100593.41;5074328;28;20202;-77
2023/09/29 02:30:10;;;;;;;1.17;0.82;;;;;;;19.20;54.20;100592.50;5074199;28;20207;-77
2023/09/29 02:32:41;;;;;;;1.40;1.10;;;;;;;19.12;54.91;100588.22;5055919;28;20198;-76
2023/09/29 02:35:08;;;;;;;1.65;1.13;;;;;;;18.95;56.46;100595.41;5072008;28;20207;-77
2023/09/29 02:37:36;;;;;;;1.75;1.00;;;;;;;18.88;56.25;100597.22;5073940;28;20211;-77
2023/09/29 02:40:04;;;;;;;3.85;1.23;;;;;;;18.75;57.17;100599.13;5074013;28;20199;-76
2023/09/29 02:42:31;;;;;;;3.78;1.60;;;;;;;18.65;57.16;100588.72;5039283;28;20191;-77
2023/09/29 02:44:57;;;;;;;1.40;1.27;;;;;;;18.67;56.59;100600.97;5074035;28;20211;-77
2023/09/29 02:47:25;;;;;;;0.82;0.80;;;;;;;18.70;56.62;100606.19;5074044;28;20203;-76
2023/09/29 02:49:53;;;;;;;1.45;1.08;;;;;;;18.64;57.35;100608.00;5073967;28;20213;-77
2023/09/29 02:52:21;;;;;;;2.58;1.52;;;;;;;18.52;58.38;100603.72;5072036;28;20249;-77
2023/09/29 02:54:48;;;;;;;0.85;0.85;;;;;;;18.53;59.61;100609.84;5072996;28;20205;-77
2023/09/29 02:57:15;;;;;;;1.33;1.10;;;;;;;18.48;60.20;100606.38;5073543;28;20751;-77
2023/09/29 02:59:42;;;;;;;2.10;1.20;;;;;;;18.29;60.68;100588.16;5073667;28;20303;-76
2023/09/29 03:02:09;;;;;;;1.65;1.30;;;;;;;18.50;60.61;100604.59;5072600;28;20445;-75
2023/09/29 03:04:36;;;;;;;2.97;1.60;;;;;;;18.55;61.04;100613.34;5072602;28;20442;-75
2023/09/29 03:07:05;;;;;;;5.97;1.40;;;;;;;18.42;60.80;100595.91;5072868;28;20207;-76
2023/09/29 03:09:33;;;;;;;1.95;1.00;;;;;;;18.28;62.38;100578.53;5072649;28;20248;-76
2023/09/29 03:12:00;;;;;;;2.83;1.33;;;;;;;18.56;79.23;100578.28;5072335;28;20445;-76
2023/09/29 03:14:27;;;;;;;3.97;1.48;;;;;;;19.06;63.54;100618.06;5072581;28;20216;-74
2023/09/29 03:16:54;;;;;;;3.17;1.42;;;;;;;18.93;61.54;100618.22;5072519;28;20721;-75
2023/09/29 03:19:21;;;;;;;4.63;1.23;;;;;;;18.68;63.00;100620.22;5070548;28;20324;-74
2023/09/29 03:21:48;;;;;;;4.07;1.77;;;;;;;18.61;63.63;100610.66;5072750;28;20245;-74
2023/09/29 03:24:17;;;;;;;4.47;1.23;;;;;;;18.53;62.49;100607.22;5070615;28;20238;-75
2023/09/29 03:26:44;;;;;;;1.65;1.10;;;;;;;18.16;61.70;100570.72;5067000;28;20632;-76
2023/09/29 03:29:11;;;;;;;1.02;1.00;;;;;;;18.28;64.34;100606.53;5070212;28;20193;-76
2023/09/29 03:31:39;;;;;;;1.95;0.98;;;;;;;18.29;62.41;100610.91;5072655;28;20199;-76
2023/09/29 03:34:06;;;;;;;0.85;0.85;;;;;;;18.13;61.29;100611.88;5072255;28;20229;-76
2023/09/29 03:36:33;;;;;;;2.90;1.10;;;;;;;18.04;62.88;100610.22;5072074;28;20698;-76
2023/09/29 03:39:00;;;;;;;1.75;1.05;;;;;;;18.13;63.15;100610.13;5072584;28;20261;-77
2023/09/29 03:41:29;;;;;;;0.95;0.80;;;;;;;18.24;62.33;100604.81;5072494;28;20195;-77
2023/09/29 03:43:56;;;;;;;1.23;0.80;;;;;;;18.17;61.58;100609.22;5072043;28;20202;-77
2023/09/29 03:46:24;;;;;;;2.17;1.13;;;;;;;18.00;61.52;100612.88;5072113;28;20213;-75
2023/09/29 03:48:51;;;;;;;7.80;1.95;;;;;;;17.90;63.48;100577.94;5072122;28;20217;-76
2023/09/29 03:51:22;;;;;;;2.42;1.13;;;;;;;18.10;63.14;100612.78;5072426;28;20293;-75
2023/09/29 03:53:49;;;;;;;2.22;1.15;;;;;;;17.92;61.92;100606.78;5072761;28;20194;-76
2023/09/29 03:56:17;;;;;;;1.73;1.00;;;;;;;17.78;63.35;100596.38;5072528;28;20205;-79
2023/09/29 03:58:45;;;;;;;2.65;0.93;;;;;;;17.86;62.09;100594.59;5072939;28;20308;-80
2023/09/29 04:01:14;;;;;;;4.22;1.35;;;;;;;17.77;62.54;100592.88;5072883;28;20207;-79
2023/09/29 04:03:41;;;;;;;3.35;1.45;;;;;;;17.94;61.94;100612.91;5072606;28;20303;-77
2023/09/29 04:06:08;;;;;;;4.75;1.35;;;;;;;17.77;62.88;100595.50;5053805;28;20202;-79
2023/09/29 04:08:35;;;;;;;6.72;1.52;;;;;;;17.91;63.81;100624.28;5071745;28;20199;-77
2023/09/29 04:11:01;;;;;;;5.35;1.60;;;;;;;17.73;64.29;100590.28;5053314;28;20190;-79
2023/09/29 04:13:28;;;;;;;4.68;1.58;;;;;;;17.87;64.26;100617.31;5071883;28;20236;-78
2023/09/29 04:15:58;;;;;;;5.35;1.50;;;;;;;17.81;64.46;100620.84;5071228;28;20198;-79
2023/09/29 04:18:25;;;;;;;3.63;1.27;;;;;;;17.83;65.26;100628.72;5071556;28;20624;-79
2023/09/29 04:20:52;;;;;;;2.70;1.45;;;;;;;17.90;64.51;100619.06;5036397;28;20684;-82
2023/09/29 04:23:19;;;;;;;4.72;1.80;;;;;;;17.63;64.46;100614.81;5071767;28;20203;-79
2023/09/29 04:25:46;;;;;;;6.20;1.90;;;;;;;17.70;66.33;100634.88;5071661;28;20203;-79
2023/09/29 04:28:14;;;;;;;5.30;1.40;;;;;;;17.69;65.07;100622.69;5071936;28;20207;-80
2023/09/29 04:30:40;;;;;;;2.00;1.05;;;;;;;17.81;66.20;100623.47;5071717;28;20202;-79
2023/09/29 04:33:08;;;;;;;2.25;1.30;;;;;;;17.83;65.37;100615.59;5072129;28;20691;-79
2023/09/29 04:35:35;;;;;;;1.95;1.20;;;;;;;17.87;72.15;100624.31;5071859;28;20207;-76
2023/09/29 04:38:02;;;;;;;2.03;1.10;;;;;;;17.74;67.12;100626.13;5071748;28;20235;-75
2023/09/29 04:40:29;;;;;;;2.47;1.20;;;;;;;17.75;67.21;100634.00;5071843;28;20254;-75
2023/09/29 04:42:56;;;;;;;4.25;1.52;;;;;;;17.86;67.27;100627.81;5071890;28;20683;-79
2023/09/29 04:45:23;;;;;;;4.57;1.33;;;;;;;17.97;67.05;100636.50;5071407;28;20230;-75
2023/09/29 04:47:49;;;;;;;1.40;1.10;;;;;;;17.96;67.95;100612.00;5051542;28;20214;-76
2023/09/29 04:50:18;;;;;;;3.60;1.38;;;;;;;17.92;66.97;100615.53;5067663;28;20207;-77
2023/09/29 04:52:44;;;;;;;2.85;1.33;;;;;;;18.09;66.83;100631.16;5075751;28;20202;-76
2023/09/29 04:55:11;;;;;;;1.52;0.85;;;;;;;18.28;65.96;100632.78;5091974;28;20200;-76
2023/09/29 04:57:38;;;;;;;2.50;1.10;;;;;;;18.33;65.29;100636.25;5080234;28;20203;-76
2023/09/29 05:00:07;;;;;;;1.83;1.17;;;;;;;18.36;64.31;100645.84;5071241;28;20222;-75
2023/09/29 05:02:34;;;;;;;1.75;0.93;;;;;;;18.37;64.67;100640.56;5071582;28;20289;-76
2023/09/29 05:05:00;;;;;;;2.13;1.10;;;;;;;18.53;64.71;100642.25;5071403;28;20263;-75
2023/09/29 05:07:28;;;;;;;2.63;1.02;;;;;;;18.61;64.16;100631.66;5070354;28;20206;-75
2023/09/29 05:09:56;;;;;;;2.67;1.15;;;;;;;18.65;64.30;100643.91;5070417;28;20614;-76
2023/09/29 05:12:23;;;;;;;1.25;0.85;;;;;;;18.71;63.84;100654.34;5075670;28;20225;-75
2023/09/29 05:14:49;;;;;;;3.28;1.58;;;;;;;18.55;65.03;100637.00;5071731;28;20677;-76
2023/09/29 05:17:16;;;;;;;1.30;1.20;;;;;;;18.68;64.59;100651.75;5065152;28;20190;-76
2023/09/29 05:19:43;;;;;;;6.63;1.33;;;;;;;18.58;66.51;100650.09;5070992;28;20689;-76
2023/09/29 05:22:10;;;;;;;4.00;1.75;;;;;;;18.68;65.48;100650.00;5071189;28;20195;-75
2023/09/29 05:24:38;;;;;;;3.63;2.40;;;;;;;18.93;65.78;100647.13;5071125;28;20202;-78
2023/09/29 05:27:05;;;;;;;2.65;1.40;;;;;;;18.94;64.61;100657.59;5065470;28;20270;-78
2023/09/29 05:29:32;;;;;;;3.30;1.60;;;;;;;18.93;64.43;100653.25;5051246;28;20211;-76
2023/09/29 05:31:58;;;;;;;1.90;1.65;;;;;;;18.87;64.06;100639.31;5054390;28;20258;-75
2023/09/29 05:34:25;;;;;;;1.90;0.90;;;;;;;18.95;63.63;100646.22;5067809;28;20214;-77
2023/09/29 05:36:52;;;;;;;1.13;0.88;;;;;;;18.68;65.50;100634.22;5071246;28;20206;-77
2023/09/29 05:39:19;;;;;;;4.70;1.58;;;;;;;18.96;65.73;100658.47;5071015;28;20234;-76
2023/09/29 05:41:47;;;;;;;6.72;1.73;;;;;;;19.05;66.99;100660.16;5072828;28;20202;-77
2023/09/29 05:44:14;;;;;;;3.58;1.23;;;;;;;18.87;66.25;100628.81;5074840;28;20663;-76
2023/09/29 05:46:41;;;;;;;1.65;1.05;;;;;;;19.12;65.56;100673.19;5074731;28;20290;-77
2023/09/29 05:49:09;;;;;;;2.55;1.15;;;;;;;19.18;65.81;100674.91;5075048;28;20190;-77
2023/09/29 05:51:36;;;;;;;3.03;1.13;;;;;;;18.32;66.37;100530.34;5074695;28;20294;-77
2023/09/29 05:54:03;;;;;;;3.60;1.73;;;;;;;19.06;65.71;100651.38;5074615;28;20199;-77
2023/09/29 05:56:31;;;;;;;2.55;1.15;;;;;;;18.68;66.07;100586.06;5074958;28;20203;-78
2023/09/29 05:58:59;;;;;;;2.40;1.10;;;;;;;19.12;66.08;100664.47;5074836;28;20199;-78
2023/09/29 06:01:27;;;;;;;1.65;1.52;;;;;;;18.97;68.32;100694.41;5074892;28;20199;-78
2023/09/29 06:03:53;;;;;;;1.38;0.88;;;;;;;18.81;69.81;100696.28;5056388;28;20213;-78
2023/09/29 06:06:20;;;;;;;2.20;0.90;;;;;;;18.70;71.64;100694.63;5074766;28;20203;-78
2023/09/29 06:08:47;;;;;;;1.50;1.08;;;;;;;18.67;71.58;100699.91;5074626;28;20206;-78
2023/09/29 06:11:14;;;;;;;1.60;1.10;;;;;;;18.68;71.80;100699.03;5074456;28;20199;-78
2023/09/29 06:13:42;;;;;;;1.63;0.90;;;;;;;18.68;71.84;100701.66;5039233;28;20671;-78
2023/09/29 06:16:10;;;;;;;0.93;0.80;;;;;;;18.99;70.77;100697.88;5074572;28;20225;-78
2023/09/29 06:18:37;;;;;;;4.30;1.38;;;;;;;19.04;70.04;100703.97;5074089;28;20234;-76
2023/09/29 06:21:03;;;;;;;1.95;1.10;;;;;;;19.20;69.11;100704.66;5074201;28;20234;-76
2023/09/29 06:23:30;;;;;;;1.75;1.33;;;;;;;18.99;68.49;100655.81;5073917;28;20210;-77
2023/09/29 06:25:58;;;;;;;1.67;0.93;;;;;;;19.45;66.76;100705.31;5073976;28;20195;-77
2023/09/29 06:28:24;;;;;;;2.50;1.27;;;;;;;18.90;66.69;100607.75;5074007;28;20272;-76
2023/09/29 06:30:52;;;;;;;2.72;1.48;;;;;;;19.22;67.84;100698.53;5074077;28;20202;-78
2023/09/29 06:33:20;;;;;;;2.53;1.20;;;;;;;19.25;68.34;100685.34;5074203;28;20222;-77
2023/09/29 06:35:47;;;;;;;3.00;1.17;;;;;;;19.18;69.06;100683.66;5073864;28;20195;-78
2023/09/29 06:38:14;;;;;;;1.85;1.00;;;;;;;19.48;67.75;100702.63;5073922;28;20708;-76
2023/09/29 06:40:41;;;;;;;1.27;1.10;;;;;;;19.50;67.49;100701.75;5073809;28;20231;-78
2023/09/29 06:43:08;;;;;;;1.73;1.17;;;;;;;19.53;65.80;100701.72;5038941;28;20195;-77
2023/09/29 06:45:35;;;;;;;2.50;1.23;;;;;;;19.60;65.87;100708.66;5073538;28;20195;-77
2023/09/29 06:48:02;;;;;;;1.75;1.05;;;;;;;19.67;65.31;100702.44;5073954;28;20199;-77
2023/09/29 06:50:30;;;;;;;1.65;1.30;;;;;;;19.83;65.00;100710.13;5038723;28;20199;-77
2023/09/29 06:52:57;;;;;;;5.85;2.15;;;;;;;19.81;63.99;100710.16;5072725;28;20210;-78
2023/09/29 06:55:23;;;;;;;3.80;2.28;;;;;;;20.01;64.03;100710.75;5073432;28;20206;-77
2023/09/29 06:57:50;;;;;;;0.68;0.68;;;;;;;19.99;63.15;100702.00;5074072;28;20207;-77
2023/09/29 07:00:18;;;;;;;4.85;2.38;;;;;;;19.95;63.90;100713.47;5073247;28;20226;-77
2023/09/29 07:02:45;;;;;;;2.17;1.40;;;;;;;20.00;64.58;100709.03;5073225;28;20197;-77
2023/09/29 07:05:12;;;;;;;1.05;1.00;;;;;;;20.14;63.95;100714.97;5073275;28;20195;-77
2023/09/29 07:07:40;;;;;;;1.65;0.95;;;;;;;20.24;64.19;100716.59;5054918;28;20202;-78
2023/09/29 07:10:09;;;;;;;8.13;1.73;;;;;;;20.34;63.98;100719.09;5073480;28;20228;-77
2023/09/29 07:12:35;;;;;;;2.03;1.75;;;;;;;20.27;64.39;100720.94;5038562;28;20244;-77
2023/09/29 07:15:03;;;;;;;1.38;0.90;;;;;;;20.21;63.93;100729.78;5073538;28;20210;-77
2023/09/29 07:17:30;;;;;;;1.92;1.20;;;;;;;20.21;64.31;100705.22;5073017;28;20264;-77
2023/09/29 07:19:57;;;;;;;2.30;1.17;;;;;;;20.26;63.41;100701.63;5073366;28;20238;-77
2023/09/29 07:22:23;;;;;;;1.70;0.95;;;;;;;20.45;63.05;100711.91;5072956;28;20689;-77
2023/09/29 07:24:57;;;;;;;1.40;1.30;;;;;;;20.72;62.30;100732.59;5073003;28;20698;-79
2023/09/29 07:27:24;;;;;;;0.77;0.77;;;;;;;20.65;61.99;100728.31;5073087;28;20202;-78
2023/09/29 07:29:51;;;;;;;2.60;1.38;;;;;;;20.85;61.31;100722.69;5037744;28;20671;-77
2023/09/29 07:32:17;;;;;;;3.50;2.00;;;;;;;20.84;60.72;100732.38;5054227;28;20663;-78
2023/09/29 07:34:44;;;;;;;1.75;1.15;;;;;;;20.88;59.04;100734.06;5073116;28;20618;-78
2023/09/29 07:37:11;;;;;;;2.25;1.20;;;;;;;20.82;58.85;100730.66;5054343;28;20625;-77
2023/09/29 07:39:38;;;;;;;1.63;1.00;;;;;;;20.99;58.81;100725.97;5037589;28;20230;-77
2023/09/29 07:42:06;;;;;;;3.65;1.48;;;;;;;21.12;59.15;100732.78;5054053;28;20187;-76
2023/09/29 07:44:32;;;;;;;5.68;1.85;;;;;;;21.22;59.62;100731.75;5072622;28;20195;-77
2023/09/29 07:46:59;;;;;;;2.45;1.20;;;;;;;21.34;57.31;100734.16;5072890;28;20199;-76
2023/09/29 07:49:26;;;;;;;2.22;1.00;;;;;;;20.76;55.79;100645.50;5072101;28;20209;-77
2023/09/29 07:51:53;;;;;;;2.55;1.23;;;;;;;21.52;56.39;100743.50;5072149;28;20230;-77
2023/09/29 07:54:21;;;;;;;4.82;1.52;;;;;;;21.63;56.17;100736.25;5072089;28;20209;-76
2023/09/29 07:56:50;;;;;;;1.38;1.25;;;;;;;21.68;55.54;100747.59;5072206;28;20198;-77
2023/09/29 07:59:19;;;;;;;1.23;1.10;;;;;;;21.33;55.24;100673.53;5072345;28;20205;-73
2023/09/29 08:01:49;;;;;;;2.83;1.65;;;;;;;21.77;53.49;100748.28;5072269;28;20260;-73
2023/09/29 08:04:16;;;;;;;2.28;1.48;;;;;;;21.90;52.95;100735.72;5071990;28;20190;-72
2023/09/29 08:06:43;;;;;;;2.08;1.48;;;;;;;22.09;53.01;100734.44;5071914;28;20195;-76
2023/09/29 08:09:12;;;;;;;1.95;1.08;;;;;;;22.21;51.42;100731.53;5071862;28;20206;-74
2023/09/29 08:11:40;;;;;;;2.95;1.60;;;;;;;22.35;50.49;100735.63;5066827;28;20321;-78
2023/09/29 08:14:07;;;;;;;2.30;1.20;;;;;;;22.16;49.59;100685.84;5051915;28;20195;-78
2023/09/29 08:16:36;;;;;;;2.45;1.40;;;;;;;22.55;47.63;100728.09;5065882;28;20216;-77
2023/09/29 08:19:04;;;;;;;7.45;1.88;;;;;;;22.66;47.96;100729.56;5071354;28;20258;-74
2023/09/29 08:21:32;;;;;;;3.30;1.38;;;;;;;22.71;52.26;100695.13;5071845;28;20226;-78
2023/09/29 08:24:02;;;;;;;1.02;0.80;;;;;;;23.16;49.43;100725.69;5072105;28;20751;-78
2023/09/29 08:26:29;;;;;;;2.13;1.40;;;;;;;23.17;47.58;100708.91;5072068;28;20202;-79
2023/09/29 08:28:57;;;;;;;2.15;1.10;;;;;;;23.41;47.27;100719.75;5064780;28;20211;-77
2023/09/29 08:31:24;;;;;;;6.50;2.08;;;;;;;23.36;45.84;100721.66;5065098;28;20241;-79
2023/09/29 08:33:52;;;;;;;3.47;1.52;;;;;;;23.49;45.12;100716.03;5071302;28;20203;-78
2023/09/29 08:36:19;;;;;;;5.45;1.70;;;;;;;23.34;45.35;100716.41;5071471;28;20210;-77
2023/09/29 08:38:46;;;;;;;0.93;0.93;;;;;;;23.60;52.99;100684.81;5067290;28;20324;-79
2023/09/29 08:41:14;;;;;;;11.98;2.20;;;;;;;23.65;46.11;100679.41;5061299;28;20226;-79
2023/09/29 08:43:42;;;;;;;2.42;1.27;;;;;;;23.82;45.50;100711.56;5071340;28;20748;-78
2023/09/29 08:46:10;;;;;;;1.40;1.20;;;;;;;23.97;44.85;100707.59;5063589;28;20199;-77
2023/09/29 08:48:37;;;;;;;3.83;1.27;;;;;;;24.00;44.87;100711.00;5066043;28;20230;-78
2023/09/29 08:51:07;;;;;;;1.95;1.35;;;;;;;23.60;44.16;100636.28;5071383;28;20209;-77
2023/09/29 08:53:34;;;;;;;2.55;1.52;;;;;;;24.18;43.80;100709.63;5071082;28;20755;-77
2023/09/29 08:56:05;;;;;;;1.85;0.88;;;;;;;24.11;44.25;100708.03;5057209;28;20199;-77
2023/09/29 08:58:34;;;;;;;3.17;1.58;;;;;;;24.20;44.16;100697.16;5075595;28;20203;-79
2023/09/29 09:01:01;;;;;;;3.75;1.73;;;;;;;24.08;43.21;100658.63;5072840;28;20234;-79
2023/09/29 09:03:28;;;;;;;5.88;1.98;;;;;;;24.41;41.97;100700.94;5071103;28;20206;-78
2023/09/29 09:05:55;;;;;;;5.00;1.70;;;;;;;24.42;42.04;100700.03;5056704;28;20195;-79
2023/09/29 09:08:25;;;;;;;4.22;1.42;;;;;;;24.40;42.31;100643.53;5070978;28;20208;-79
2023/09/29 09:10:58;;;;;;;4.07;1.30;;;;;;;24.73;41.60;100690.13;5071123;28;20269;-78
2023/09/29 09:13:26;;;;;;;6.30;2.03;;;;;;;24.61;41.52;100690.56;5070997;28;20194;-79
2023/09/29 09:15:57;;;;;;;5.25;1.38;;;;;;;24.79;41.33;100678.47;5071599;28;20205;-78
2023/09/29 09:18:27;;;;;;;4.72;1.35;;;;;;;24.81;40.99;100671.31;5074856;28;20554;-79
2023/09/29 09:20:57;;;;;;;4.93;1.50;;;;;;;25.25;40.82;100691.91;5075200;28;20305;-78
2023/09/29 09:23:25;;;;;;;4.60;1.23;;;;;;;25.49;41.23;100690.16;5039865;28;20230;-78
2023/09/29 09:25:53;;;;;;;4.10;1.30;;;;;;;25.34;40.88;100662.38;5072950;28;20256;-77
2023/09/29 09:28:22;;;;;;;3.95;1.20;;;;;;;25.48;39.90;100694.59;5074879;28;20209;-77
2023/09/29 09:30:51;;;;;;;8.90;1.85;;;;;;;25.63;39.58;100685.25;5074490;28;20202;-78
2023/09/29 09:33:21;;;;;;;5.80;2.28;;;;;;;25.63;40.30;100664.84;5075166;28;20229;-78
2023/09/29 09:35:48;;;;;;;4.78;1.63;;;;;;;25.83;39.27;100685.34;5056641;28;20664;-78
2023/09/29 09:38:15;;;;;;;5.22;2.25;;;;;;;25.98;41.20;100678.59;5074568;28;20199;-78
2023/09/29 09:40:44;;;;;;;4.80;2.20;;;;;;;25.94;42.67;100682.28;5074253;28;20293;-79
2023/09/29 09:43:11;;;;;;;4.68;1.52;;;;;;;25.88;43.48;100656.81;5062630;28;20199;-78
2023/09/29 09:45:40;;;;;;;3.42;1.38;;;;;;;26.18;43.10;100669.88;5072069;28;20194;-77
2023/09/29 09:48:09;;;;;;;4.57;1.45;;;;;;;26.21;43.12;100675.06;5074491;28;20253;-78
2023/09/29 09:50:37;;;;;;;5.85;2.22;;;;;;;26.05;41.99;100658.81;5074480;28;20206;-77
2023/09/29 09:53:08;;;;;;;8.55;2.05;;;;;;;26.13;42.31;100678.84;5074241;28;20679;-77
2023/09/29 09:55:39;;;;;;;6.53;2.45;;;;;;;26.02;40.74;100651.84;5074020;28;20199;-78
2023/09/29 09:58:13;;;;;;;5.20;1.65;;;;;;;26.14;40.47;100669.97;5074172;28;20205;-78
2023/09/29 10:00:42;;;;;;;4.60;1.73;;;;;;;25.78;40.09;100607.63;5073868;28;20230;-78
2023/09/29 10:03:12;;;;;;;6.20;2.03;;;;;;;26.03;40.55;100648.25;5055687;28;20260;-78
2023/09/29 10:05:42;;;;;;;4.35;1.58;;;;;;;25.96;39.99;100659.19;5074159;28;20230;-78
2023/09/29 10:08:10;;;;;;;5.15;1.55;;;;;;;26.03;39.80;100658.00;5060638;28;20670;-78
2023/09/29 10:10:40;;;;;;;4.30;1.77;;;;;;;26.06;40.40;100666.75;5073928;28;20210;-78
2023/09/29 10:13:12;;;;;;;9.88;2.22;;;;;;;26.15;40.59;100649.53;5074097;28;20632;-78
2023/09/29 10:15:39;;;;;;;4.70;1.50;;;;;;;26.20;40.17;100657.38;5073826;28;20683;-77
2023/09/29 10:18:17;;;;;;;2.78;1.23;;;;;;;26.31;40.20;100637.41;5073882;28;20199;-78
2023/09/29 10:20:46;;;;;;;3.92;1.17;;;;;;;26.43;40.62;100655.50;5073639;28;20678;-78
2023/09/29 10:23:14;;;;;;;6.30;1.83;;;;;;;26.54;40.61;100642.63;5074457;28;20227;-77
2023/09/29 10:25:44;;;;;;;5.13;1.40;;;;;;;26.68;40.36;100639.41;5074065;28;20207;-73
2023/09/29 10:28:17;;;;;;;4.75;1.80;;;;;;;26.62;40.22;100642.31;5073711;28;20195;-78
2023/09/29 10:30:44;;;;;;;7.43;2.42;;;;;;;26.25;39.65;100619.06;5073917;28;20199;-77
2023/09/29 10:33:12;;;;;;;5.97;2.10;;;;;;;26.50;39.71;100630.41;5055211;28;20191;-77
2023/09/29 10:35:46;;;;;;;6.22;2.00;;;;;;;26.70;39.75;100621.56;5055257;28;20221;-78
2023/09/29 10:38:24;;;;;;;3.58;1.38;;;;;;;26.91;39.53;100636.66;5073869;28;20357;-80
2023/09/29 10:40:52;;;;;;;9.82;1.50;;;;;;;27.01;39.38;100635.31;5073695;28;20234;-83
2023/09/29 10:43:22;;;;;;;12.38;2.00;;;;;;;27.15;38.87;100625.88;5073770;28;20195;-82
2023/09/29 10:45:50;;;;;;;5.07;1.92;;;;;;;26.92;39.46;100618.88;5055251;28;20202;-81
2023/09/29 10:48:19;;;;;;;7.47;1.73;;;;;;;27.15;38.84;100623.22;5073841;28;20206;-83
2023/09/29 10:50:49;;;;;;;4.28;1.45;;;;;;;27.05;38.62;100622.72;5073601;28;20195;-82
2023/09/29 10:53:17;;;;;;;4.63;1.80;;;;;;;26.75;39.54;100611.63;5073250;28;20205;-81
2023/09/29 10:55:46;;;;;;;4.57;1.90;;;;;;;26.88;39.15;100604.84;5073348;28;20271;-81
2023/09/29 10:58:14;;;;;;;6.38;2.53;;;;;;;26.81;39.03;100608.69;5073460;28;20237;-81
2023/09/29 11:00:47;;;;;;;3.88;1.25;;;;;;;26.91;39.39;100611.81;5073460;28;20245;-82
2023/09/29 11:03:15;;;;;;;6.40;1.38;;;;;;;26.94;39.12;100609.91;5073180;28;20195;-82
2023/09/29 11:05:54;;;;;;;8.80;2.55;;;;;;;27.14;38.91;100605.50;5073163;28;20202;-84
2023/09/29 11:08:28;;;;;;;4.07;1.40;;;;;;;27.16;39.15;100600.97;5073069;28;20285;-80
2023/09/29 11:11:00;;;;;;;6.18;2.10;;;;;;;27.43;38.76;100597.06;5072885;28;20198;-78
2023/09/29 11:13:28;;;;;;;10.23;2.15;;;;;;;27.33;38.73;100574.41;5072932;28;20264;-82
2023/09/29 11:15:58;;;;;;;6.65;2.30;;;;;;;27.39;38.42;100587.47;5073193;28;20199;-81
2023/09/29 11:18:33;;;;;;;5.20;1.35;;;;;;;27.38;38.72;100557.31;5068083;28;20218;-81
2023/09/29 11:21:04;;;;;;;6.60;2.70;;;;;;;27.40;38.13;100586.50;5061660;28;20266;-82
2023/09/29 11:23:39;;;;;;;6.13;2.60;;;;;;;27.49;37.62;100586.13;5053306;28;20203;-83
2023/09/29 11:26:10;;;;;;;2.63;1.27;;;;;;;27.40;38.39;100570.53;5053040;28;20644;-77
2023/09/29 11:28:41;;;;;;;5.78;2.33;;;;;;;27.54;38.38;100578.78;5070853;28;20275;-83